createdAt,value
2018-03-25T00:00:42.211Z,0
2018-03-25T00:01:43.579Z,0
2018-03-25T00:02:45.056Z,0
2018-03-25T00:03:51.642Z,0
2018-03-25T00:04:55.910Z,0
2018-03-25T00:05:59.871Z,0
2018-03-25T00:07:04.946Z,0
2018-03-25T00:08:06.546Z,0
2018-03-25T00:09:08.642Z,0
2018-03-25T00:10:10.079Z,0
2018-03-25T00:11:12.207Z,0
2018-03-25T00:12:17.754Z,0
2018-03-25T00:13:22.093Z,0
2018-03-25T00:14:24.040Z,0
2018-03-25T00:15:26.155Z,0
2018-03-25T00:16:27.556Z,0
2018-03-25T00:17:29.643Z,0
2018-03-25T00:18:33.398Z,0
2018-03-25T00:19:35.567Z,0
2018-03-25T00:20:37.104Z,0
2018-03-25T00:21:39.517Z,0
2018-03-25T00:22:40.913Z,0
2018-03-25T00:23:43.244Z,0
2018-03-25T00:24:44.643Z,0
2018-03-25T00:25:46.057Z,0
2018-03-25T00:26:47.446Z,0
2018-03-25T00:27:48.847Z,0
2018-03-25T00:28:50.277Z,0
2018-03-25T00:29:51.734Z,0
2018-03-25T00:30:53.197Z,0
2018-03-25T00:31:54.607Z,0
2018-03-25T00:33:23.682Z,0
2018-03-25T00:34:25.141Z,0
2018-03-25T00:35:29.764Z,0
2018-03-25T00:36:34.011Z,0
2018-03-25T00:37:36.690Z,0
2018-03-25T00:38:38.983Z,0
2018-03-25T00:39:40.403Z,0
2018-03-25T00:40:43.247Z,0
2018-03-25T00:41:44.673Z,0
2018-03-25T00:42:46.919Z,0
2018-03-25T00:43:48.361Z,0
2018-03-25T00:44:51.866Z,0
2018-03-25T00:45:53.325Z,0
2018-03-25T00:46:56.923Z,0
2018-03-25T00:47:59.220Z,0
2018-03-25T00:49:00.604Z,0
2018-03-25T00:50:01.989Z,0
2018-03-25T00:51:03.490Z,0
2018-03-25T00:52:04.905Z,0
2018-03-25T00:53:07.114Z,0
2018-03-25T00:54:08.480Z,0
2018-03-25T00:55:09.895Z,0
2018-03-25T00:56:11.322Z,0
2018-03-25T00:57:13.338Z,0
2018-03-25T00:58:15.299Z,0
2018-03-25T00:59:19.271Z,0
2018-03-25T01:00:21.220Z,0
2018-03-25T01:01:23.770Z,0
2018-03-25T01:02:27.573Z,0
2018-03-25T01:03:30.277Z,0
2018-03-25T01:04:31.742Z,0
2018-03-25T01:05:34.142Z,0
2018-03-25T01:06:38.165Z,0
2018-03-25T01:07:39.697Z,0
2018-03-25T01:08:41.628Z,0
2018-03-25T01:09:43.812Z,0
2018-03-25T01:10:46.262Z,0
2018-03-25T01:11:48.994Z,0
2018-03-25T01:12:51.351Z,0
2018-03-25T01:13:52.742Z,0
2018-03-25T01:14:58.253Z,0
2018-03-25T01:15:59.738Z,0
2018-03-25T01:17:07.702Z,0
2018-03-25T01:18:09.121Z,0
2018-03-25T01:19:14.567Z,0
2018-03-25T01:20:16.014Z,0
2018-03-25T01:21:21.154Z,0
2018-03-25T01:22:23.296Z,0
2018-03-25T01:23:27.163Z,0
2018-03-25T01:24:29.171Z,0
2018-03-25T01:25:30.555Z,0
2018-03-25T01:26:32.001Z,0
2018-03-25T01:27:34.066Z,0
2018-03-25T01:28:37.277Z,0
2018-03-25T01:29:39.379Z,0
2018-03-25T01:30:40.752Z,0
2018-03-25T01:31:43.087Z,0
2018-03-25T01:32:46.648Z,0
2018-03-25T01:33:48.993Z,0
2018-03-25T01:34:51.363Z,0
2018-03-25T01:35:52.807Z,0
2018-03-25T01:36:54.243Z,0
2018-03-25T01:37:57.572Z,0
2018-03-25T01:38:59.714Z,0
2018-03-25T01:40:01.157Z,0
2018-03-25T01:41:05.001Z,0
2018-03-25T01:42:07.226Z,0
2018-03-25T01:43:10.130Z,0
2018-03-25T01:44:13.140Z,0
2018-03-25T01:45:19.619Z,0
2018-03-25T01:46:21.037Z,0
2018-03-25T01:47:23.355Z,0
2018-03-25T01:48:24.794Z,0
2018-03-25T01:49:27.835Z,0
2018-03-25T01:50:31.397Z,0
2018-03-25T01:51:37.648Z,0
2018-03-25T01:52:38.954Z,0
2018-03-25T01:53:44.888Z,0
2018-03-25T01:54:46.949Z,0
2018-03-25T01:55:48.348Z,0
2018-03-25T01:56:49.734Z,0
2018-03-25T01:57:54.471Z,0
2018-03-25T01:58:55.899Z,0
2018-03-25T01:59:57.334Z,0
2018-03-25T02:01:03.642Z,0
2018-03-25T02:02:05.040Z,0
2018-03-25T02:03:06.562Z,0
2018-03-25T02:04:11.297Z,0
2018-03-25T02:05:16.189Z,0
2018-03-25T02:06:18.437Z,0
2018-03-25T02:07:19.841Z,0
2018-03-25T02:08:21.307Z,0
2018-03-25T02:09:24.256Z,0
2018-03-25T02:10:27.314Z,0
2018-03-25T02:11:29.496Z,0
2018-03-25T02:12:30.918Z,0
2018-03-25T02:13:34.027Z,0
2018-03-25T02:14:35.481Z,0
2018-03-25T02:15:37.725Z,0
2018-03-25T02:16:43.049Z,0
2018-03-25T02:17:45.449Z,0
2018-03-25T02:18:47.450Z,0
2018-03-25T02:19:48.884Z,0
2018-03-25T02:20:50.344Z,0
2018-03-25T02:21:54.582Z,0
2018-03-25T02:22:57.566Z,0
2018-03-25T02:23:59.582Z,0
2018-03-25T02:25:01.582Z,0
2018-03-25T02:26:02.546Z,0
2018-03-25T02:27:24.298Z,0
2018-03-25T02:28:26.581Z,0
2018-03-25T02:29:27.125Z,0
2018-03-25T02:30:28.575Z,0
2018-03-25T02:31:50.647Z,0
2018-03-25T02:32:55.649Z,0
2018-03-25T02:33:57.079Z,0
2018-03-25T02:34:59.250Z,0
2018-03-25T02:36:00.695Z,0
2018-03-25T02:37:03.151Z,0
2018-03-25T02:38:04.544Z,0
2018-03-25T02:39:05.942Z,0
2018-03-25T02:40:07.348Z,0
2018-03-25T02:41:08.987Z,0
2018-03-25T02:42:10.376Z,0
2018-03-25T02:43:11.817Z,0
2018-03-25T02:44:13.331Z,0
2018-03-25T02:45:14.958Z,0
2018-03-25T02:46:16.395Z,0
2018-03-25T02:47:17.797Z,0
2018-03-25T02:48:19.344Z,0
2018-03-25T02:49:22.604Z,0
2018-03-25T02:50:24.198Z,0
2018-03-25T02:51:26.268Z,0
2018-03-25T02:52:29.086Z,0
2018-03-25T02:53:30.064Z,0
2018-03-25T02:54:31.511Z,0
2018-03-25T02:55:34.350Z,0
2018-03-25T02:56:35.787Z,0
2018-03-25T02:57:37.192Z,0
2018-03-25T02:58:39.989Z,0
2018-03-25T02:59:41.421Z,0
2018-03-25T03:00:42.837Z,0
2018-03-25T03:01:44.201Z,0
2018-03-25T03:02:45.749Z,0
2018-03-25T03:03:47.184Z,0
2018-03-25T03:04:49.477Z,0
2018-03-25T03:05:51.779Z,0
2018-03-25T03:06:54.109Z,0
2018-03-25T03:07:57.082Z,0
2018-03-25T03:08:57.869Z,0
2018-03-25T03:09:59.288Z,0
2018-03-25T03:11:00.720Z,0
2018-03-25T03:12:03.095Z,0
2018-03-25T03:13:05.474Z,0
2018-03-25T03:14:06.927Z,0
2018-03-25T03:15:09.852Z,0
2018-03-25T03:16:12.402Z,0
2018-03-25T03:17:14.806Z,0
2018-03-25T03:18:17.166Z,0
2018-03-25T03:19:18.713Z,0
2018-03-25T03:20:24.971Z,0
2018-03-25T03:21:26.533Z,0
2018-03-25T03:22:27.909Z,0
2018-03-25T03:23:29.350Z,0
2018-03-25T03:24:30.808Z,0
2018-03-25T03:25:54.620Z,0
2018-03-25T03:26:56.038Z,0
2018-03-25T03:28:05.880Z,0
2018-03-25T03:29:07.326Z,0
2018-03-25T03:30:24.412Z,0
2018-03-25T03:31:25.810Z,0
2018-03-25T03:32:27.228Z,0
2018-03-25T03:33:28.635Z,0
2018-03-25T03:34:30.080Z,0
2018-03-25T03:35:32.137Z,0
2018-03-25T03:36:35.277Z,0
2018-03-25T03:37:54.548Z,0
2018-03-25T03:39:24.613Z,0
2018-03-25T03:40:26.058Z,0
2018-03-25T03:41:27.454Z,0
2018-03-25T03:42:54.602Z,0
2018-03-25T03:43:56.088Z,0
2018-03-25T03:45:05.172Z,0
2018-03-25T03:46:08.960Z,0
2018-03-25T03:47:10.436Z,0
2018-03-25T03:48:11.821Z,0
2018-03-25T03:49:14.665Z,0
2018-03-25T03:50:17.685Z,0
2018-03-25T03:51:19.161Z,0
2018-03-25T03:52:24.364Z,0
2018-03-25T03:53:27.263Z,0
2018-03-25T03:54:28.683Z,0
2018-03-25T03:55:31.869Z,0
2018-03-25T03:56:35.898Z,0
2018-03-25T03:57:37.437Z,0
2018-03-25T03:58:38.933Z,0
2018-03-25T03:59:40.361Z,0
2018-03-25T04:00:44.055Z,0
2018-03-25T04:01:47.651Z,0
2018-03-25T04:02:49.074Z,0
2018-03-25T04:03:50.524Z,0
2018-03-25T04:04:52.721Z,0
2018-03-25T04:05:55.486Z,0
2018-03-25T04:06:57.638Z,0
2018-03-25T04:07:59.046Z,0
2018-03-25T04:09:01.468Z,0
2018-03-25T04:10:02.884Z,0
2018-03-25T04:11:05.935Z,0
2018-03-25T04:12:10.081Z,0
2018-03-25T04:13:11.522Z,0
2018-03-25T04:14:12.943Z,0
2018-03-25T04:15:16.714Z,0
2018-03-25T04:16:18.116Z,0
2018-03-25T04:17:20.169Z,0
2018-03-25T04:18:21.580Z,0
2018-03-25T04:19:25.000Z,0
2018-03-25T04:20:39.291Z,0
2018-03-25T04:21:42.094Z,0
2018-03-25T04:22:43.482Z,0
2018-03-25T04:23:46.298Z,0
2018-03-25T04:24:54.598Z,0
2018-03-25T04:25:55.187Z,0
2018-03-25T04:27:24.342Z,0
2018-03-25T04:28:26.523Z,0
2018-03-25T04:29:27.956Z,0
2018-03-25T04:30:30.294Z,0
2018-03-25T04:31:41.434Z,0
2018-03-25T04:32:54.708Z,0
2018-03-25T04:33:56.758Z,0
2018-03-25T04:35:01.645Z,0
2018-03-25T04:36:08.375Z,0
2018-03-25T04:37:15.091Z,0
2018-03-25T04:38:18.699Z,0
2018-03-25T04:39:20.865Z,0
2018-03-25T04:40:23.230Z,0
2018-03-25T04:41:26.035Z,0
2018-03-25T04:42:31.506Z,0
2018-03-25T04:43:34.595Z,4
2018-03-25T04:44:37.691Z,4
2018-03-25T04:45:39.608Z,0
2018-03-25T04:46:41.026Z,4
2018-03-25T04:47:42.371Z,4
2018-03-25T04:48:48.400Z,4
2018-03-25T04:49:54.154Z,4
2018-03-25T04:50:55.563Z,4
2018-03-25T04:51:58.441Z,4
2018-03-25T04:52:59.889Z,8
2018-03-25T04:54:01.355Z,12
2018-03-25T04:55:04.252Z,12
2018-03-25T04:56:07.468Z,16
2018-03-25T04:57:10.943Z,20
2018-03-25T04:58:14.834Z,24
2018-03-25T04:59:16.243Z,28
2018-03-25T05:00:17.622Z,32
2018-03-25T05:01:25.162Z,40
2018-03-25T05:02:27.300Z,52
2018-03-25T05:03:28.733Z,60
2018-03-25T05:04:30.102Z,72
2018-03-25T05:05:31.481Z,84
2018-03-25T05:06:32.900Z,96
2018-03-25T05:07:36.615Z,116
2018-03-25T05:08:39.055Z,136
2018-03-25T05:09:40.533Z,160
2018-03-25T05:10:41.959Z,184
2018-03-25T05:11:46.222Z,208
2018-03-25T05:12:47.695Z,236
2018-03-25T05:13:49.657Z,268
2018-03-25T05:14:51.663Z,300
2018-03-25T05:15:53.036Z,332
2018-03-25T05:16:56.457Z,364
2018-03-25T05:17:58.000Z,396
2018-03-25T05:19:00.849Z,424
2018-03-25T05:20:03.920Z,464
2018-03-25T05:21:08.281Z,508
2018-03-25T05:22:09.747Z,556
2018-03-25T05:23:13.423Z,608
2018-03-25T05:24:16.313Z,668
2018-03-25T05:25:17.794Z,732
2018-03-25T05:26:19.192Z,800
2018-03-25T05:27:23.332Z,868
2018-03-25T05:28:27.312Z,944
2018-03-25T05:29:29.345Z,1024
2018-03-25T05:30:32.530Z,1104
2018-03-25T05:31:36.086Z,1176
2018-03-25T05:32:38.490Z,1248
2018-03-25T05:33:39.899Z,1316
2018-03-25T05:34:42.058Z,1392
2018-03-25T05:35:43.480Z,1484
2018-03-25T05:36:44.911Z,1572
2018-03-25T05:37:46.324Z,1664
2018-03-25T05:38:48.881Z,1752
2018-03-25T05:39:50.391Z,1836
2018-03-25T05:40:51.791Z,1924
2018-03-25T05:41:54.016Z,2024
2018-03-25T05:42:56.130Z,2132
2018-03-25T05:43:57.504Z,2240
2018-03-25T05:44:58.859Z,2340
2018-03-25T05:46:00.210Z,2440
2018-03-25T05:47:02.176Z,2544
2018-03-25T05:48:04.224Z,2644
2018-03-25T05:49:08.005Z,2760
2018-03-25T05:50:09.539Z,2876
2018-03-25T05:51:11.395Z,2980
2018-03-25T05:52:13.691Z,3104
2018-03-25T05:53:15.638Z,3220
2018-03-25T05:54:17.123Z,3332
2018-03-25T05:55:18.584Z,3452
2018-03-25T05:56:21.755Z,3576
2018-03-25T05:57:23.866Z,3720
2018-03-25T05:58:25.944Z,3856
2018-03-25T05:59:28.167Z,3996
2018-03-25T06:00:30.942Z,4140
2018-03-25T06:01:32.372Z,4260
2018-03-25T06:02:33.807Z,4344
2018-03-25T06:03:35.221Z,4456
2018-03-25T06:04:36.599Z,4552
2018-03-25T06:05:39.931Z,4684
2018-03-25T06:06:41.387Z,4836
2018-03-25T06:07:42.863Z,4980
2018-03-25T06:08:44.801Z,5132
2018-03-25T06:09:48.452Z,5256
2018-03-25T06:10:50.410Z,5368
2018-03-25T06:11:52.031Z,5464
2018-03-25T06:12:54.419Z,5564
2018-03-25T06:13:56.831Z,5664
2018-03-25T06:14:59.226Z,5768
2018-03-25T06:16:01.496Z,5868
2018-03-25T06:17:03.636Z,5960
2018-03-25T06:18:06.470Z,6040
2018-03-25T06:19:09.076Z,6120
2018-03-25T06:20:10.470Z,6188
2018-03-25T06:21:11.900Z,6276
2018-03-25T06:22:13.403Z,6360
2018-03-25T06:23:14.811Z,6448
2018-03-25T06:24:16.220Z,6544
2018-03-25T06:25:18.430Z,6644
2018-03-25T06:26:20.572Z,6748
2018-03-25T06:27:21.966Z,6860
2018-03-25T06:28:24.063Z,6976
2018-03-25T06:29:27.411Z,7104
2018-03-25T06:30:29.589Z,7264
2018-03-25T06:31:31.532Z,7424
2018-03-25T06:32:32.971Z,7576
2018-03-25T06:33:35.250Z,7728
2018-03-25T06:34:37.537Z,7880
2018-03-25T06:35:41.195Z,8036
2018-03-25T06:36:43.202Z,8208
2018-03-25T06:37:46.699Z,8356
2018-03-25T06:38:48.184Z,8488
2018-03-25T06:39:50.191Z,8608
2018-03-25T06:40:53.734Z,8740
2018-03-25T06:41:56.613Z,8892
2018-03-25T06:42:57.398Z,9048
2018-03-25T06:43:59.358Z,9220
2018-03-25T06:45:01.603Z,9392
2018-03-25T06:46:03.024Z,9560
2018-03-25T06:47:04.409Z,9732
2018-03-25T06:48:07.251Z,9904
2018-03-25T06:49:09.933Z,10104
2018-03-25T06:50:11.321Z,10348
2018-03-25T06:51:13.626Z,10996
2018-03-25T06:52:15.888Z,11312
2018-03-25T06:53:17.823Z,11072
2018-03-25T06:54:21.106Z,11568
2018-03-25T06:55:26.164Z,12876
2018-03-25T06:56:27.547Z,13508
2018-03-25T06:57:30.314Z,13672
2018-03-25T06:58:31.741Z,13740
2018-03-25T06:59:33.199Z,13800
2018-03-25T07:00:34.592Z,13940
2018-03-25T07:01:36.764Z,14200
2018-03-25T07:02:38.313Z,14688
2018-03-25T07:03:39.918Z,15200
2018-03-25T07:04:41.639Z,15668
2018-03-25T07:05:43.238Z,16124
2018-03-25T07:06:45.616Z,16500
2018-03-25T07:07:47.256Z,17036
2018-03-25T07:08:48.775Z,18016
2018-03-25T07:09:51.233Z,19648
2018-03-25T07:10:54.117Z,21472
2018-03-25T07:11:56.163Z,22752
2018-03-25T07:12:58.457Z,24128
2018-03-25T07:14:00.683Z,24448
2018-03-25T07:15:03.372Z,25408
2018-03-25T07:16:04.780Z,26560
2018-03-25T07:17:06.238Z,28480
2018-03-25T07:18:07.647Z,29952
2018-03-25T07:19:11.282Z,31520
2018-03-25T07:20:12.693Z,34752
2018-03-25T07:21:16.648Z,37696
2018-03-25T07:22:18.115Z,40992
2018-03-25T07:23:20.179Z,43456
2018-03-25T07:24:21.705Z,42176
2018-03-25T07:25:23.126Z,44448
2018-03-25T07:26:24.533Z,43872
2018-03-25T07:27:26.977Z,41696
2018-03-25T07:28:28.445Z,39168
2018-03-25T07:29:29.833Z,37184
2018-03-25T07:30:31.228Z,35296
2018-03-25T07:31:33.626Z,34816
2018-03-25T07:32:34.988Z,34784
2018-03-25T07:33:36.489Z,33952
2018-03-25T07:34:37.929Z,32320
2018-03-25T07:35:39.355Z,31328
2018-03-25T07:36:40.821Z,31136
2018-03-25T07:37:43.961Z,30144
2018-03-25T07:38:46.325Z,29216
2018-03-25T07:39:47.797Z,29824
2018-03-25T07:40:49.892Z,29408
2018-03-25T07:41:51.350Z,29280
2018-03-25T07:42:52.759Z,29600
2018-03-25T07:43:55.278Z,29696
2018-03-25T07:44:58.628Z,29984
2018-03-25T07:45:59.248Z,30912
2018-03-25T07:47:00.695Z,30752
2018-03-25T07:48:02.209Z,30016
2018-03-25T07:49:04.299Z,29792
2018-03-25T07:50:05.787Z,30048
2018-03-25T07:51:07.828Z,29952
2018-03-25T07:52:10.513Z,30080
2018-03-25T07:53:11.988Z,30656
2018-03-25T07:54:13.542Z,30880
2018-03-25T07:55:14.946Z,30688
2018-03-25T07:56:16.381Z,30720
2018-03-25T07:57:17.802Z,31232
2018-03-25T07:58:19.225Z,30976
2018-03-25T07:59:21.214Z,30432
2018-03-25T08:00:22.644Z,29728
2018-03-25T08:01:24.383Z,28992
2018-03-25T08:02:26.439Z,28544
2018-03-25T08:03:27.945Z,28288
2018-03-25T08:04:29.366Z,28480
2018-03-25T08:05:32.028Z,28224
2018-03-25T08:06:35.537Z,28512
2018-03-25T08:07:37.587Z,28704
2018-03-25T08:08:39.693Z,28960
2018-03-25T08:09:41.691Z,29088
2018-03-25T08:10:44.788Z,29344
2018-03-25T08:11:46.150Z,29632
2018-03-25T08:12:47.514Z,29856
2018-03-25T08:13:49.660Z,30048
2018-03-25T08:14:53.204Z,30272
2018-03-25T08:15:54.633Z,30240
2018-03-25T08:16:56.024Z,29120
2018-03-25T08:17:57.394Z,27456
2018-03-25T08:19:00.387Z,28896
2018-03-25T08:20:02.494Z,29600
2018-03-25T08:21:03.897Z,30496
2018-03-25T08:22:05.262Z,31136
2018-03-25T08:23:08.290Z,31744
2018-03-25T08:24:09.651Z,32416
2018-03-25T08:25:11.022Z,32928
2018-03-25T08:26:12.393Z,33088
2018-03-25T08:27:14.499Z,33472
2018-03-25T08:28:15.873Z,33632
2018-03-25T08:29:17.237Z,34272
2018-03-25T08:30:19.183Z,34656
2018-03-25T08:31:20.541Z,34912
2018-03-25T08:32:21.918Z,34144
2018-03-25T08:33:25.687Z,34240
2018-03-25T08:34:27.809Z,33504
2018-03-25T08:35:29.179Z,33952
2018-03-25T08:36:31.288Z,34464
2018-03-25T08:37:32.716Z,35360
2018-03-25T08:38:34.090Z,35392
2018-03-25T08:39:35.466Z,36352
2018-03-25T08:40:36.838Z,36288
2018-03-25T08:41:38.248Z,36480
2018-03-25T08:42:40.472Z,36672
2018-03-25T08:43:42.509Z,37216
2018-03-25T08:44:43.863Z,38432
2018-03-25T08:45:45.757Z,40064
2018-03-25T08:46:48.683Z,41184
2018-03-25T08:47:50.054Z,41504
2018-03-25T08:48:51.425Z,40864
2018-03-25T08:49:52.810Z,41376
2018-03-25T08:50:54.233Z,42208
2018-03-25T08:51:56.550Z,42176
2018-03-25T08:52:58.046Z,42368
2018-03-25T08:53:59.412Z,44352
2018-03-25T08:55:00.788Z,45088
2018-03-25T08:56:02.155Z,45952
2018-03-25T08:57:03.519Z,47968
2018-03-25T08:58:04.895Z,48224
2018-03-25T08:59:06.295Z,48128
2018-03-25T09:00:07.781Z,45088
2018-03-25T09:01:09.406Z,43168
2018-03-25T09:02:10.824Z,42432
2018-03-25T09:03:12.217Z,43296
2018-03-25T09:04:13.826Z,44672
2018-03-25T09:05:15.283Z,46272
2018-03-25T09:06:16.726Z,48448
2018-03-25T09:07:18.100Z,47904
2018-03-25T09:08:19.487Z,45184
2018-03-25T09:09:21.743Z,43776
2018-03-25T09:10:23.123Z,43264
2018-03-25T09:11:24.542Z,43424
2018-03-25T09:12:25.940Z,43936
2018-03-25T09:13:27.862Z,45344
2018-03-25T09:14:29.244Z,47712
2018-03-25T09:15:30.617Z,51360
2018-03-25T09:16:32.821Z,53248
2018-03-25T09:17:37.790Z,51872
2018-03-25T09:18:39.151Z,49856
2018-03-25T09:19:40.543Z,50144
2018-03-25T09:20:41.919Z,53216
2018-03-25T09:21:43.307Z,52704
2018-03-25T09:22:45.157Z,50496
2018-03-25T09:23:47.164Z,49856
2018-03-25T09:24:49.665Z,48864
2018-03-25T09:25:50.791Z,48736
2018-03-25T09:26:52.163Z,50784
2018-03-25T09:27:53.543Z,55008
2018-03-25T09:28:55.604Z,55904
2018-03-25T09:29:57.478Z,53280
2018-03-25T09:30:58.857Z,50656
2018-03-25T09:32:01.668Z,51712
2018-03-25T09:33:02.377Z,53888
2018-03-25T09:34:03.772Z,55552
2018-03-25T09:35:05.152Z,53792
2018-03-25T09:36:06.515Z,51296
2018-03-25T09:37:08.762Z,49792
2018-03-25T09:38:11.009Z,49024
2018-03-25T09:39:12.439Z,49152
2018-03-25T09:40:13.807Z,49664
2018-03-25T09:41:16.691Z,51136
2018-03-25T09:42:19.674Z,52576
2018-03-25T09:43:21.031Z,54368
2018-03-25T09:44:22.404Z,55648
2018-03-25T09:45:23.779Z,57792
2018-03-25T09:46:25.673Z,59744
2018-03-25T09:47:27.436Z,57856
2018-03-25T09:48:28.842Z,56960
2018-03-25T09:49:30.379Z,53024
2018-03-25T09:50:31.809Z,51104
2018-03-25T09:51:34.231Z,55552
2018-03-25T09:52:35.611Z,59456
2018-03-25T09:53:37.533Z,58304
2018-03-25T09:54:38.952Z,53472
2018-03-25T09:55:41.762Z,51232
2018-03-25T09:56:44.591Z,50496
2018-03-25T09:57:45.998Z,51360
2018-03-25T09:58:48.150Z,54560
2018-03-25T09:59:49.523Z,60512
2018-03-25T10:00:51.738Z,63360
2018-03-25T10:01:53.158Z,61600
2018-03-25T10:02:55.232Z,59776
2018-03-25T10:03:56.615Z,60128
2018-03-25T10:04:58.050Z,59296
2018-03-25T10:05:59.423Z,57952
2018-03-25T10:07:00.805Z,56928
2018-03-25T10:08:02.189Z,53728
2018-03-25T10:09:03.606Z,51360
2018-03-25T10:10:04.984Z,51104
2018-03-25T10:11:06.362Z,54112
2018-03-25T10:12:07.749Z,56384
2018-03-25T10:13:10.005Z,55584
2018-03-25T10:14:12.916Z,54496
2018-03-25T10:15:14.306Z,52128
2018-03-25T10:16:17.473Z,51904
2018-03-25T10:17:18.860Z,53632
2018-03-25T10:18:20.246Z,54688
2018-03-25T10:19:21.635Z,54912
2018-03-25T10:20:23.023Z,57088
2018-03-25T10:21:24.380Z,58048
2018-03-25T10:22:26.433Z,56192
2018-03-25T10:23:27.789Z,54528
2018-03-25T10:24:29.175Z,55936
2018-03-25T10:25:30.577Z,58240
2018-03-25T10:26:31.960Z,58528
2018-03-25T10:27:33.354Z,58880
2018-03-25T10:28:34.725Z,56416
2018-03-25T10:29:37.380Z,54112
2018-03-25T10:30:38.808Z,53664
2018-03-25T10:31:40.185Z,56736
2018-03-25T10:32:42.754Z,58304
2018-03-25T10:33:45.545Z,58528
2018-03-25T10:34:47.749Z,54496
2018-03-25T10:35:49.216Z,52832
2018-03-25T10:36:50.576Z,55040
2018-03-25T10:37:51.949Z,58848
2018-03-25T10:38:54.859Z,61088
2018-03-25T10:39:56.237Z,57920
2018-03-25T10:40:57.628Z,55904
2018-03-25T10:41:59.005Z,53824
2018-03-25T10:43:00.380Z,51392
2018-03-25T10:44:01.747Z,51200
2018-03-25T10:45:03.816Z,50304
2018-03-25T10:46:05.202Z,50304
2018-03-25T10:47:06.574Z,51552
2018-03-25T10:48:07.966Z,53888
2018-03-25T10:49:09.366Z,59072
2018-03-25T10:50:10.748Z,62240
2018-03-25T10:51:12.137Z,59648
2018-03-25T10:52:14.179Z,55584
2018-03-25T10:53:15.568Z,55552
2018-03-25T10:54:16.962Z,58528
2018-03-25T10:55:19.710Z,62112
2018-03-25T10:56:20.218Z,63840
2018-03-25T10:57:21.588Z,63904
2018-03-25T10:58:22.924Z,62432
2018-03-25T10:59:24.355Z,61856
2018-03-25T11:00:25.747Z,63872
2018-03-25T11:01:27.120Z,64416
2018-03-25T11:02:28.516Z,61760
2018-03-25T11:03:31.708Z,58112
2018-03-25T11:04:32.167Z,57696
2018-03-25T11:05:33.541Z,58656
2018-03-25T11:06:34.922Z,60192
2018-03-25T11:07:36.852Z,61600
2018-03-25T11:08:38.834Z,65856
2018-03-25T11:09:40.712Z,70848
2018-03-25T11:10:43.029Z,76000
2018-03-25T11:11:44.997Z,77344
2018-03-25T11:12:46.391Z,74848
2018-03-25T11:13:47.759Z,74112
2018-03-25T11:14:49.135Z,75456
2018-03-25T11:15:50.535Z,77440
2018-03-25T11:16:52.744Z,76672
2018-03-25T11:17:54.935Z,75936
2018-03-25T11:18:56.368Z,72320
2018-03-25T11:19:57.748Z,68544
2018-03-25T11:20:59.662Z,65632
2018-03-25T11:22:01.981Z,65216
2018-03-25T11:23:04.226Z,68224
2018-03-25T11:24:05.604Z,74816
2018-03-25T11:25:07.000Z,76960
2018-03-25T11:26:08.383Z,75744
2018-03-25T11:27:09.820Z,71072
2018-03-25T11:28:11.207Z,65632
2018-03-25T11:29:12.616Z,62368
2018-03-25T11:30:14.305Z,63072
2018-03-25T11:31:15.689Z,65216
2018-03-25T11:32:17.615Z,65760
2018-03-25T11:33:19.724Z,64832
2018-03-25T11:34:20.331Z,62240
2018-03-25T11:35:21.724Z,60896
2018-03-25T11:36:23.099Z,62784
2018-03-25T11:37:25.144Z,66464
2018-03-25T11:38:26.536Z,68288
2018-03-25T11:39:27.908Z,67840
2018-03-25T11:40:29.297Z,65856
2018-03-25T11:41:32.275Z,67328
2018-03-25T11:42:34.521Z,68928
2018-03-25T11:43:36.586Z,71360
2018-03-25T11:44:38.736Z,75424
2018-03-25T11:45:40.112Z,80064
2018-03-25T11:46:41.501Z,79776
2018-03-25T11:47:42.876Z,74688
2018-03-25T11:48:44.263Z,71360
2018-03-25T11:49:45.644Z,73440
2018-03-25T11:50:47.034Z,78112
2018-03-25T11:51:48.405Z,79392
2018-03-25T11:52:50.334Z,74144
2018-03-25T11:53:52.670Z,66304
2018-03-25T11:54:54.644Z,60160
2018-03-25T11:55:56.387Z,56320
2018-03-25T11:56:57.773Z,57440
2018-03-25T11:58:01.431Z,60416
2018-03-25T11:59:02.822Z,64064
2018-03-25T12:00:05.187Z,62976
2018-03-25T12:01:07.360Z,70048
2018-03-25T12:02:09.444Z,78368
2018-03-25T12:03:11.341Z,76832
2018-03-25T12:04:14.242Z,79488
2018-03-25T12:05:15.692Z,80256
2018-03-25T12:06:17.092Z,78816
2018-03-25T12:07:20.098Z,78560
2018-03-25T12:08:22.877Z,79104
2018-03-25T12:09:24.270Z,80384
2018-03-25T12:10:28.413Z,79936
2018-03-25T12:11:31.014Z,79264
2018-03-25T12:12:35.536Z,76672
2018-03-25T12:13:36.921Z,75200
2018-03-25T12:14:38.920Z,76512
2018-03-25T12:15:41.237Z,76384
2018-03-25T12:16:43.405Z,75264
2018-03-25T12:17:45.418Z,74208
2018-03-25T12:18:49.659Z,74400
2018-03-25T12:19:51.860Z,75232
2018-03-25T12:20:53.903Z,74912
2018-03-25T12:21:55.817Z,74304
2018-03-25T12:22:58.088Z,73792
2018-03-25T12:24:01.012Z,72192
2018-03-25T12:25:02.396Z,72192
2018-03-25T12:26:04.321Z,73344
2018-03-25T12:27:06.593Z,74400
2018-03-25T12:28:07.172Z,74016
2018-03-25T12:29:09.137Z,75968
2018-03-25T12:30:11.435Z,76896
2018-03-25T12:31:14.309Z,76928
2018-03-25T12:32:15.730Z,73664
2018-03-25T12:33:18.084Z,62400
2018-03-25T12:34:22.005Z,73728
2018-03-25T12:35:24.643Z,73920
2018-03-25T12:36:26.921Z,72064
2018-03-25T12:37:28.299Z,71680
2018-03-25T12:38:30.626Z,72448
2018-03-25T12:39:32.804Z,72448
2018-03-25T12:40:34.200Z,69856
2018-03-25T12:41:37.001Z,69056
2018-03-25T12:42:39.236Z,72448
2018-03-25T12:43:42.099Z,75200
2018-03-25T12:44:43.518Z,77056
2018-03-25T12:45:44.861Z,77184
2018-03-25T12:46:47.040Z,75968
2018-03-25T12:47:48.953Z,75296
2018-03-25T12:48:49.748Z,74560
2018-03-25T12:49:51.763Z,74528
2018-03-25T12:50:53.139Z,74208
2018-03-25T12:51:54.519Z,74336
2018-03-25T12:52:55.897Z,74656
2018-03-25T12:53:57.274Z,74560
2018-03-25T12:54:59.735Z,74688
2018-03-25T12:56:02.600Z,75168
2018-03-25T12:57:04.947Z,75168
2018-03-25T12:58:07.149Z,74944
2018-03-25T12:59:09.467Z,73216
2018-03-25T13:00:11.811Z,73824
2018-03-25T13:01:13.190Z,74048
2018-03-25T13:02:15.452Z,74944
2018-03-25T13:03:17.600Z,75968
2018-03-25T13:04:19.760Z,74944
2018-03-25T13:05:21.949Z,74880
2018-03-25T13:06:22.473Z,75008
2018-03-25T13:07:25.451Z,75648
2018-03-25T13:08:25.871Z,76640
2018-03-25T13:09:27.362Z,78016
2018-03-25T13:10:28.748Z,78496
2018-03-25T13:11:30.118Z,78368
2018-03-25T13:12:31.503Z,78848
2018-03-25T13:13:32.895Z,79616
2018-03-25T13:14:35.055Z,79296
2018-03-25T13:15:36.441Z,77632
2018-03-25T13:16:38.591Z,76032
2018-03-25T13:17:42.207Z,73984
2018-03-25T13:18:43.590Z,74048
2018-03-25T13:19:45.954Z,71392
2018-03-25T13:20:46.305Z,69632
2018-03-25T13:21:48.458Z,67424
2018-03-25T13:22:49.847Z,68672
2018-03-25T13:23:51.231Z,68672
2018-03-25T13:24:52.609Z,69248
2018-03-25T13:25:54.518Z,67552
2018-03-25T13:26:55.892Z,65248
2018-03-25T13:27:57.274Z,61824
2018-03-25T13:28:58.657Z,59776
2018-03-25T13:30:00.029Z,60416
2018-03-25T13:31:01.416Z,62528
2018-03-25T13:32:03.872Z,65920
2018-03-25T13:33:05.250Z,67552
2018-03-25T13:34:06.623Z,69376
2018-03-25T13:35:07.997Z,70944
2018-03-25T13:36:09.373Z,69760
2018-03-25T13:37:10.768Z,69696
2018-03-25T13:38:12.140Z,69632
2018-03-25T13:39:13.517Z,68128
2018-03-25T13:40:14.916Z,67776
2018-03-25T13:41:18.006Z,69120
2018-03-25T13:42:20.987Z,67488
2018-03-25T13:43:23.191Z,65568
2018-03-25T13:44:25.279Z,65312
2018-03-25T13:45:29.534Z,65536
2018-03-25T13:46:33.501Z,65344
2018-03-25T13:47:35.702Z,64832
2018-03-25T13:48:37.672Z,64000
2018-03-25T13:49:40.031Z,63264
2018-03-25T13:50:42.222Z,64544
2018-03-25T13:51:44.314Z,67200
2018-03-25T13:52:46.265Z,66816
2018-03-25T13:53:50.626Z,65728
2018-03-25T13:54:54.730Z,62720
2018-03-25T13:55:56.926Z,58368
2018-03-25T13:56:59.006Z,54912
2018-03-25T13:58:00.906Z,54976
2018-03-25T13:59:05.022Z,56256
2018-03-25T14:00:07.347Z,54688
2018-03-25T14:01:09.527Z,55648
2018-03-25T14:02:12.371Z,58304
2018-03-25T14:03:13.759Z,59648
2018-03-25T14:04:16.114Z,59968
2018-03-25T14:06:22.029Z,58048
2018-03-25T14:07:24.598Z,57952